createdAt,value
2023-08-04T00:00:53.179Z,17.89
2023-08-04T00:03:30.757Z,17.87
2023-08-04T00:05:58.737Z,17.84
2023-08-04T00:08:26.582Z,17.84
2023-08-04T00:10:54.416Z,17.80
2023-08-04T00:13:23.198Z,17.76
2023-08-04T00:15:51.201Z,17.73
2023-08-04T00:18:19.090Z,17.71
2023-08-04T00:20:50.856Z,17.73
2023-08-04T00:23:18.983Z,17.71
2023-08-04T00:25:53.375Z,17.69
2023-08-04T00:28:21.307Z,17.68
2023-08-04T00:30:50.259Z,17.67
2023-08-04T00:33:25.406Z,17.67
2023-08-04T00:35:53.762Z,17.65
2023-08-04T00:38:21.614Z,17.67
2023-08-04T00:40:49.575Z,17.66
2023-08-04T00:43:18.628Z,17.63
2023-08-04T00:45:46.461Z,17.57
2023-08-04T00:48:15.246Z,17.52
2023-08-04T00:50:43.995Z,17.48
2023-08-04T00:53:13.064Z,17.45
2023-08-04T00:55:43.335Z,17.42
2023-08-04T00:58:11.209Z,17.42
2023-08-04T01:00:40.148Z,17.45
2023-08-04T01:03:08.469Z,17.51
2023-08-04T01:05:48.656Z,17.50
2023-08-04T01:08:34.981Z,17.47
2023-08-04T01:11:11.798Z,17.45
2023-08-04T01:13:48.593Z,17.43
2023-08-04T01:16:16.675Z,17.44
2023-08-04T01:18:44.544Z,17.44
2023-08-04T01:21:12.547Z,17.44
2023-08-04T01:23:40.479Z,17.44
2023-08-04T01:26:19.242Z,17.41
2023-08-04T01:28:48.809Z,17.37
2023-08-04T01:31:18.039Z,17.34
2023-08-04T01:33:45.990Z,17.31
2023-08-04T01:36:13.925Z,17.27
2023-08-04T01:38:42.498Z,17.24
2023-08-04T01:41:10.746Z,17.20
2023-08-04T01:43:38.627Z,17.14
2023-08-04T01:46:06.645Z,17.13
2023-08-04T01:48:34.541Z,17.12
2023-08-04T01:51:02.458Z,17.15
2023-08-04T01:53:30.535Z,17.11
2023-08-04T01:55:58.359Z,17.09
2023-08-04T01:58:26.225Z,17.06
2023-08-04T02:00:54.167Z,17.01
2023-08-04T02:03:22.401Z,16.95
2023-08-04T02:05:51.794Z,16.96
2023-08-04T02:08:19.657Z,16.97
2023-08-04T02:10:51.541Z,16.96
2023-08-04T02:13:19.773Z,16.92
2023-08-04T02:15:47.735Z,16.93
2023-08-04T02:18:15.798Z,16.95
2023-08-04T02:20:43.569Z,16.96
2023-08-04T02:23:12.390Z,16.95
2023-08-04T02:25:40.370Z,16.91
2023-08-04T02:28:08.950Z,16.88
2023-08-04T02:30:36.821Z,16.88
2023-08-04T02:33:08.503Z,16.87
2023-08-04T02:35:36.521Z,16.83
2023-08-04T02:38:04.414Z,16.79
2023-08-04T02:40:38.631Z,16.75
2023-08-04T02:43:06.723Z,16.73
2023-08-04T02:45:35.294Z,16.69
2023-08-04T02:48:03.462Z,16.64
2023-08-04T02:50:31.510Z,16.59
2023-08-04T02:52:59.367Z,16.53
2023-08-04T02:55:30.923Z,16.49
2023-08-04T02:57:58.895Z,16.46
2023-08-04T03:00:27.297Z,16.45
2023-08-04T03:02:55.259Z,16.46
2023-08-04T03:05:24.250Z,16.48
2023-08-04T03:07:52.225Z,16.49
2023-08-04T03:10:20.185Z,16.51
2023-08-04T03:12:48.208Z,16.50
2023-08-04T03:15:26.163Z,16.48
2023-08-04T03:17:58.068Z,16.45
2023-08-04T03:20:26.118Z,16.45
2023-08-04T03:22:53.944Z,16.45
2023-08-04T03:25:21.893Z,16.42
2023-08-04T03:27:49.893Z,16.39
2023-08-04T03:30:18.314Z,16.38
2023-08-04T03:32:46.208Z,16.38
2023-08-04T03:35:14.301Z,16.36
2023-08-04T03:37:42.177Z,16.36
2023-08-04T03:40:10.672Z,16.37
2023-08-04T03:42:39.775Z,16.38
2023-08-04T03:45:08.755Z,16.39
2023-08-04T03:47:36.825Z,16.40
2023-08-04T03:50:06.519Z,16.42
2023-08-04T03:52:34.795Z,16.42
2023-08-04T03:55:02.774Z,16.45
2023-08-04T03:57:30.713Z,16.48
2023-08-04T03:59:58.582Z,16.49
2023-08-04T04:02:26.483Z,16.42
2023-08-04T04:04:54.474Z,16.44
2023-08-04T04:07:22.525Z,16.48
2023-08-04T04:09:50.425Z,16.45
2023-08-04T04:12:18.255Z,16.49
2023-08-04T04:14:46.090Z,16.52
2023-08-04T04:17:14.439Z,16.52
2023-08-04T04:19:52.926Z,16.51
2023-08-04T04:22:20.776Z,16.53
2023-08-04T04:24:49.062Z,16.53
2023-08-04T04:27:17.103Z,16.53
2023-08-04T04:29:45.092Z,16.51
2023-08-04T04:32:12.908Z,16.51
2023-08-04T04:34:41.874Z,16.52
2023-08-04T04:37:09.816Z,16.56
2023-08-04T04:39:37.715Z,16.59
2023-08-04T04:42:06.751Z,16.62
2023-08-04T04:44:34.925Z,16.66
2023-08-04T04:47:03.045Z,16.70
2023-08-04T04:49:31.040Z,16.74
2023-08-04T04:51:59.027Z,16.78
2023-08-04T04:54:28.553Z,16.81
2023-08-04T04:56:57.013Z,16.87
2023-08-04T04:59:24.996Z,16.91
2023-08-04T05:01:52.926Z,16.96
2023-08-04T05:04:27.627Z,17.02
2023-08-04T05:06:59.497Z,17.08
2023-08-04T05:09:27.605Z,17.15
2023-08-04T05:11:55.435Z,17.20
2023-08-04T05:14:23.345Z,17.21
2023-08-04T05:16:51.209Z,17.23
2023-08-04T05:19:19.136Z,17.30
2023-08-04T05:21:47.248Z,17.36
2023-08-04T05:24:15.305Z,17.41
2023-08-04T05:26:43.261Z,17.46
2023-08-04T05:29:18.118Z,17.53
2023-08-04T05:31:46.418Z,17.57
2023-08-04T05:34:14.541Z,17.62
2023-08-04T05:36:42.519Z,17.68
2023-08-04T05:39:10.477Z,17.74
2023-08-04T05:41:38.355Z,17.80
2023-08-04T05:44:06.308Z,17.86
2023-08-04T05:46:34.057Z,17.93
2023-08-04T05:49:02.197Z,17.99
2023-08-04T05:51:30.160Z,18.05
2023-08-04T05:53:58.018Z,18.10
2023-08-04T05:56:25.811Z,18.19
2023-08-04T05:58:53.723Z,18.28
2023-08-04T06:01:21.628Z,18.34
2023-08-04T06:03:49.877Z,18.40
2023-08-04T06:06:18.712Z,18.46
2023-08-04T06:08:47.092Z,18.53
2023-08-04T06:11:15.193Z,18.62
2023-08-04T06:13:43.256Z,18.68
2023-08-04T06:16:11.241Z,18.74
2023-08-04T06:18:39.399Z,18.78
2023-08-04T06:21:11.859Z,18.84
2023-08-04T06:23:46.621Z,18.88
2023-08-04T06:26:14.693Z,18.90
2023-08-04T06:28:42.686Z,18.92
2023-08-04T06:31:10.542Z,18.98
2023-08-04T06:33:39.621Z,19.06
2023-08-04T06:36:08.235Z,19.12
2023-08-04T06:38:36.431Z,19.18
2023-08-04T06:41:04.405Z,19.25
2023-08-04T06:43:32.313Z,19.31
2023-08-04T06:46:00.623Z,19.35
2023-08-04T06:48:29.154Z,19.37
2023-08-04T06:50:57.031Z,19.39
2023-08-04T06:53:24.906Z,19.45
2023-08-04T06:55:52.930Z,19.49
2023-08-04T06:58:21.245Z,19.55
2023-08-04T07:00:56.039Z,19.62
2023-08-04T07:03:24.267Z,19.71
2023-08-04T07:05:53.017Z,19.82
2023-08-04T07:08:21.345Z,19.92
2023-08-04T07:10:49.535Z,19.97
2023-08-04T07:13:17.514Z,20.00
2023-08-04T07:15:59.549Z,20.04
2023-08-04T07:18:27.703Z,20.07
2023-08-04T07:21:05.416Z,20.01
2023-08-04T07:23:33.454Z,19.95
2023-08-04T07:26:03.786Z,19.92
2023-08-04T07:28:36.517Z,19.96
2023-08-04T07:31:06.014Z,19.99
2023-08-04T07:33:34.847Z,20.02
2023-08-04T07:36:04.762Z,20.05
2023-08-04T07:38:33.522Z,20.07
2023-08-04T07:41:10.061Z,20.11
2023-08-04T07:43:38.250Z,20.11
2023-08-04T07:46:14.672Z,20.10
2023-08-04T07:48:43.017Z,20.13
2023-08-04T07:51:18.241Z,20.22
2023-08-04T07:53:51.167Z,20.35
2023-08-04T07:56:19.701Z,20.45
2023-08-04T07:58:48.875Z,20.51
2023-08-04T08:01:24.528Z,20.55
2023-08-04T08:04:04.174Z,20.63
2023-08-04T08:06:34.036Z,20.69
2023-08-04T08:09:02.260Z,20.67
2023-08-04T08:11:30.142Z,20.69
2023-08-04T08:14:00.739Z,20.77
2023-08-04T08:16:31.559Z,20.84
2023-08-04T08:18:59.989Z,20.88
2023-08-04T08:21:27.955Z,20.96
2023-08-04T08:29:56.977Z,21.24
2023-08-04T08:32:52.941Z,21.29
2023-08-04T08:35:21.478Z,21.32
2023-08-04T08:37:50.117Z,21.41
2023-08-04T08:40:19.608Z,21.50
2023-08-04T08:42:48.375Z,21.58
2023-08-04T08:45:16.260Z,21.64
2023-08-04T08:48:05.781Z,21.71
2023-08-04T08:50:35.736Z,21.81
2023-08-04T08:53:10.929Z,21.90
2023-08-04T08:55:40.216Z,21.97
2023-08-04T08:58:09.743Z,21.96
2023-08-04T09:00:38.036Z,21.93
2023-08-04T09:03:07.069Z,21.89
2023-08-04T09:05:35.429Z,21.88
2023-08-04T09:08:04.383Z,21.84
2023-08-04T09:10:35.579Z,21.78
2023-08-04T09:13:08.611Z,21.76
2023-08-04T09:16:01.873Z,21.72
2023-08-04T09:18:38.209Z,21.65
2023-08-04T09:21:09.069Z,21.61
2023-08-04T09:23:38.140Z,21.57
2023-08-04T09:26:06.128Z,21.57
2023-08-04T09:28:34.105Z,21.57
2023-08-04T09:31:03.708Z,21.57
2023-08-04T09:33:34.839Z,21.65
2023-08-04T09:36:05.180Z,21.74
2023-08-04T09:38:35.574Z,21.83
2023-08-04T09:41:08.198Z,21.83
2023-08-04T09:43:45.349Z,21.82
2023-08-04T09:46:19.145Z,21.93
2023-08-04T09:48:48.428Z,21.99
2023-08-04T09:51:23.291Z,22.07
2023-08-04T09:53:54.252Z,22.06
2023-08-04T09:56:30.065Z,22.00
2023-08-04T09:58:59.965Z,22.01
2023-08-04T10:01:28.534Z,22.08
2023-08-04T10:03:58.833Z,22.12
2023-08-04T10:06:27.536Z,22.13
2023-08-04T10:08:57.160Z,22.17
2023-08-04T10:11:25.130Z,22.26
2023-08-04T10:13:56.740Z,22.35
2023-08-04T10:16:35.255Z,22.24
2023-08-04T10:19:06.710Z,22.20
2023-08-04T10:21:40.850Z,22.15
2023-08-04T10:24:10.711Z,22.13
2023-08-04T10:26:57.093Z,22.13
2023-08-04T10:29:36.200Z,22.12
2023-08-04T10:32:08.685Z,22.07
2023-08-04T10:34:41.928Z,22.05
2023-08-04T10:37:12.860Z,22.06
2023-08-04T10:39:46.445Z,22.09
2023-08-04T10:42:23.098Z,22.17
2023-08-04T10:45:04.548Z,22.30
2023-08-04T10:47:36.017Z,22.37
2023-08-04T10:50:13.375Z,22.49
2023-08-04T10:52:45.225Z,22.53
2023-08-04T10:55:15.086Z,22.50
2023-08-04T10:57:43.763Z,22.50
2023-08-04T11:00:12.888Z,22.52
2023-08-04T11:02:40.890Z,22.52
2023-08-04T11:05:12.951Z,22.50
2023-08-04T11:07:49.148Z,22.42
2023-08-04T11:10:18.013Z,22.39
2023-08-04T11:12:45.938Z,22.43
2023-08-04T11:15:13.975Z,22.51
2023-08-04T11:17:43.973Z,22.56
2023-08-04T11:22:47.972Z,22.79
2023-08-04T11:25:16.264Z,22.87
2023-08-04T11:27:46.446Z,22.87
2023-08-04T11:30:17.067Z,22.86
2023-08-04T11:32:52.288Z,22.84
2023-08-04T11:35:20.989Z,22.84
2023-08-04T11:37:50.499Z,22.80
2023-08-04T11:40:39.670Z,22.72
2023-08-04T11:43:07.684Z,22.66
2023-08-04T11:45:35.752Z,22.68
2023-08-04T11:48:03.943Z,22.72
2023-08-04T11:50:32.460Z,22.83
2023-08-04T11:53:01.052Z,22.88
2023-08-04T11:55:38.892Z,22.88
2023-08-04T11:58:07.425Z,22.87
2023-08-04T12:00:37.625Z,22.85
2023-08-04T12:03:14.665Z,22.80
2023-08-04T12:05:43.605Z,22.80
2023-08-04T12:08:16.965Z,22.80
2023-08-04T12:10:45.066Z,22.83
2023-08-04T12:13:35.722Z,22.88
2023-08-04T12:16:04.536Z,22.89
2023-08-04T12:18:32.571Z,22.94
2023-08-04T12:21:00.707Z,22.98
2023-08-04T12:23:29.606Z,23.00
2023-08-04T12:25:57.963Z,23.08
2023-08-04T12:28:26.055Z,23.25
2023-08-04T12:33:25.435Z,23.52
2023-08-04T12:35:54.002Z,23.52
2023-08-04T12:38:22.053Z,23.45
2023-08-04T12:40:50.032Z,23.36
2023-08-04T12:43:17.959Z,23.32
2023-08-04T12:45:46.000Z,23.32
2023-08-04T12:48:13.870Z,23.33
2023-08-04T12:50:42.570Z,23.34
2023-08-04T12:53:11.185Z,23.31
2023-08-04T12:55:39.134Z,23.26
2023-08-04T12:58:07.167Z,23.25
2023-08-04T13:00:37.122Z,23.30
2023-08-04T13:03:15.397Z,23.25
2023-08-04T13:05:43.793Z,23.22
2023-08-04T13:08:12.087Z,23.21
2023-08-04T13:10:40.060Z,23.17
2023-08-04T13:13:07.982Z,23.15
2023-08-04T13:15:35.961Z,23.11
2023-08-04T13:18:04.111Z,23.08
2023-08-04T13:20:32.638Z,23.05
2023-08-04T13:23:00.790Z,23.02
2023-08-04T13:25:29.044Z,23.01
2023-08-04T13:27:57.688Z,23.01
2023-08-04T13:30:25.691Z,23.01
2023-08-04T13:32:53.903Z,22.99
2023-08-04T13:35:28.825Z,23.00
2023-08-04T13:37:56.945Z,23.12
2023-08-04T13:40:24.990Z,23.27
2023-08-04T13:42:53.494Z,23.40
2023-08-04T13:45:22.092Z,23.42
2023-08-04T13:47:50.855Z,23.36
2023-08-04T13:50:19.344Z,23.26
2023-08-04T13:52:47.507Z,23.21
2023-08-04T13:55:15.496Z,23.19
2023-08-04T13:57:43.622Z,23.19
2023-08-04T14:00:13.411Z,23.18
2023-08-04T14:02:42.682Z,23.14
2023-08-04T14:05:11.491Z,23.15
2023-08-04T14:07:42.428Z,23.19
2023-08-04T14:10:11.563Z,23.22
2023-08-04T14:12:39.452Z,23.23
2023-08-04T14:15:07.940Z,23.21
2023-08-04T14:17:42.329Z,23.22
2023-08-04T14:20:14.995Z,23.21
2023-08-04T14:22:44.404Z,23.23
2023-08-04T14:25:12.268Z,23.24
2023-08-04T14:27:40.104Z,23.26
2023-08-04T14:30:08.715Z,23.31
2023-08-04T14:32:39.902Z,23.41
2023-08-04T14:35:08.714Z,23.49
2023-08-04T14:37:37.221Z,23.53
2023-08-04T14:40:05.696Z,23.62
2023-08-04T14:42:33.630Z,23.66
2023-08-04T14:45:04.312Z,23.69
2023-08-04T14:47:32.538Z,23.64
2023-08-04T14:50:01.324Z,23.56
2023-08-04T14:52:29.337Z,23.52
2023-08-04T14:54:57.350Z,23.47
2023-08-04T14:57:25.366Z,23.43
2023-08-04T14:59:54.065Z,23.37
2023-08-04T15:02:22.122Z,23.36
2023-08-04T15:04:54.317Z,23.36
2023-08-04T15:07:27.190Z,23.42
2023-08-04T15:09:58.251Z,23.46
2023-08-04T15:12:26.408Z,23.44
2023-08-04T15:14:54.538Z,23.44
2023-08-04T15:17:22.704Z,23.44
2023-08-04T15:19:51.110Z,23.41
2023-08-04T15:22:19.033Z,23.35
2023-08-04T15:24:46.836Z,23.27
2023-08-04T15:27:16.957Z,23.25
2023-08-04T15:29:47.877Z,23.20
2023-08-04T15:32:15.748Z,23.15
2023-08-04T15:34:44.032Z,23.12
2023-08-04T15:37:12.193Z,23.09
2023-08-04T15:39:40.245Z,23.06
2023-08-04T15:42:09.931Z,23.02
2023-08-04T15:44:37.947Z,22.94
2023-08-04T15:47:10.452Z,22.86
2023-08-04T15:49:38.701Z,22.80
2023-08-04T15:52:07.438Z,22.72
2023-08-04T15:54:36.442Z,22.65
2023-08-04T15:57:04.492Z,22.57
2023-08-04T15:59:34.333Z,22.53
2023-08-04T16:02:09.214Z,22.49
2023-08-04T16:04:37.036Z,22.46
2023-08-04T16:07:05.329Z,22.44
2023-08-04T16:09:34.477Z,22.41
2023-08-04T16:12:03.732Z,22.40
2023-08-04T16:14:31.677Z,22.41
2023-08-04T16:17:05.807Z,22.43
2023-08-04T16:19:35.090Z,22.40
2023-08-04T16:22:05.451Z,22.37
2023-08-04T16:24:33.851Z,22.32
2023-08-04T16:27:02.139Z,22.27
2023-08-04T16:29:52.448Z,22.22
2023-08-04T16:32:20.804Z,22.16
2023-08-04T16:34:49.422Z,22.13
2023-08-04T16:37:17.446Z,22.10
2023-08-04T16:39:45.686Z,22.08
2023-08-04T16:42:13.703Z,22.08
2023-08-04T16:44:42.005Z,22.10
2023-08-04T16:47:10.565Z,22.14
2023-08-04T16:49:38.712Z,22.17
2023-08-04T16:52:07.140Z,22.22
2023-08-04T16:54:55.118Z,22.27
2023-08-04T16:57:30.292Z,22.34
2023-08-04T16:59:58.459Z,22.39
2023-08-04T17:02:33.192Z,22.42
2023-08-04T17:05:01.548Z,22.44
2023-08-04T17:07:30.921Z,22.48
2023-08-04T17:10:03.097Z,22.46
2023-08-04T17:12:31.203Z,22.42
2023-08-04T17:15:02.331Z,22.38
2023-08-04T17:17:30.395Z,22.33
2023-08-04T17:19:58.359Z,22.27
2023-08-04T17:22:26.960Z,22.19
2023-08-04T17:24:55.412Z,22.13
2023-08-04T17:27:23.774Z,22.10
2023-08-04T17:29:52.772Z,22.06
2023-08-04T17:32:21.087Z,22.04
2023-08-04T17:34:48.990Z,22.00
2023-08-04T17:37:37.554Z,21.97
2023-08-04T17:40:06.193Z,21.90
2023-08-04T17:42:36.096Z,21.86
2023-08-04T17:45:28.030Z,21.81
2023-08-04T17:47:56.064Z,21.76
2023-08-04T17:50:23.998Z,21.72
2023-08-04T17:52:52.622Z,21.64
2023-08-04T17:55:20.482Z,21.59
2023-08-04T17:57:50.869Z,21.54
2023-08-04T18:00:19.184Z,21.50
2023-08-04T18:02:54.068Z,21.49
2023-08-04T18:05:22.007Z,21.49
2023-08-04T18:07:49.856Z,21.45
2023-08-04T18:10:17.695Z,21.40
2023-08-04T18:12:45.650Z,21.35
2023-08-04T18:15:13.705Z,21.33
2023-08-04T18:17:41.878Z,21.30
2023-08-04T18:20:10.545Z,21.28
2023-08-04T18:22:38.517Z,21.27
2023-08-04T18:25:07.664Z,21.25
2023-08-04T18:27:36.306Z,21.19
2023-08-04T18:30:05.313Z,21.17
2023-08-04T18:32:36.053Z,21.09
2023-08-04T18:35:12.587Z,21.02
2023-08-04T18:37:50.480Z,21.00
2023-08-04T18:40:25.480Z,20.99
2023-08-04T18:42:53.370Z,20.97
2023-08-04T18:45:21.252Z,20.90
2023-08-04T18:47:55.847Z,20.86
2023-08-04T18:50:29.868Z,20.83
2023-08-04T18:52:58.080Z,20.78
2023-08-04T18:55:25.960Z,20.73
2023-08-04T18:57:53.843Z,20.68
2023-08-04T19:00:25.736Z,20.61
2023-08-04T19:02:53.691Z,20.53
2023-08-04T19:05:21.702Z,20.49
2023-08-04T19:07:49.992Z,20.46
2023-08-04T19:10:20.537Z,20.40
2023-08-04T19:12:48.638Z,20.32
2023-08-04T19:15:19.472Z,20.28
2023-08-04T19:17:47.412Z,20.21
2023-08-04T19:20:15.549Z,20.15
2023-08-04T19:22:45.184Z,20.11
2023-08-04T19:25:13.232Z,20.02
2023-08-04T19:27:44.365Z,19.91
2023-08-04T19:30:12.837Z,19.87
2023-08-04T19:32:40.810Z,19.83
2023-08-04T19:35:09.988Z,19.82
2023-08-04T19:37:38.083Z,19.84
2023-08-04T19:40:13.252Z,19.83
2023-08-04T19:42:41.431Z,19.84
2023-08-04T19:45:09.952Z,19.85
2023-08-04T19:47:38.443Z,19.84
2023-08-04T19:50:14.659Z,19.83
2023-08-04T19:52:49.459Z,19.81
2023-08-04T19:55:28.967Z,19.79
2023-08-04T19:58:05.546Z,19.78
2023-08-04T20:00:44.521Z,19.77
2023-08-04T20:03:12.796Z,19.75
2023-08-04T20:05:40.917Z,19.72
2023-08-04T20:08:09.134Z,19.70
2023-08-04T20:10:37.495Z,19.69
2023-08-04T20:13:05.498Z,19.67
2023-08-04T20:15:33.718Z,19.65
2023-08-04T20:18:02.226Z,19.64
2023-08-04T20:20:32.021Z,19.64
2023-08-04T20:23:00.034Z,19.62
2023-08-04T20:25:28.357Z,19.56
2023-08-04T20:27:56.324Z,19.51
2023-08-04T20:30:24.312Z,19.43
2023-08-04T20:32:52.391Z,19.42
2023-08-04T20:35:20.433Z,19.41
2023-08-04T20:37:48.491Z,19.41
2023-08-04T20:40:17.243Z,19.41
2023-08-04T20:42:46.225Z,19.41
2023-08-04T20:45:14.201Z,19.40
2023-08-04T20:47:43.882Z,19.39
2023-08-04T20:50:12.069Z,19.38
2023-08-04T20:52:40.027Z,19.37
2023-08-04T20:55:08.128Z,19.37
2023-08-04T20:57:36.257Z,19.34
2023-08-04T21:00:04.856Z,19.33
2023-08-04T21:02:33.071Z,19.32
2023-08-04T21:05:01.111Z,19.30
2023-08-04T21:07:29.894Z,19.28
2023-08-04T21:09:57.768Z,19.25
2023-08-04T21:12:25.757Z,19.20
2023-08-04T21:14:53.779Z,19.17
2023-08-04T21:17:22.130Z,19.14
2023-08-04T21:19:54.435Z,19.11
2023-08-04T21:22:23.111Z,19.07
2023-08-04T21:24:50.948Z,19.07
2023-08-04T21:27:18.867Z,19.08
2023-08-04T21:29:46.987Z,19.05
2023-08-04T21:32:14.952Z,19.05
2023-08-04T21:34:49.349Z,19.03
2023-08-04T21:37:18.643Z,19.04
2023-08-04T21:39:46.711Z,19.04
2023-08-04T21:42:15.283Z,19.04
2023-08-04T21:44:43.433Z,19.04
2023-08-04T21:47:12.913Z,19.03
2023-08-04T21:49:40.966Z,19.01
2023-08-04T21:52:09.255Z,19.00
2023-08-04T21:54:37.305Z,19.00
2023-08-04T21:57:05.447Z,18.99
2023-08-04T21:59:33.465Z,18.99
2023-08-04T22:02:01.570Z,18.99
2023-08-04T22:04:29.699Z,18.97
2023-08-04T22:06:57.585Z,18.97
2023-08-04T22:09:25.691Z,18.96
2023-08-04T22:11:53.599Z,18.95
2023-08-04T22:14:23.949Z,18.93
2023-08-04T22:16:53.842Z,18.91
2023-08-04T22:19:23.268Z,18.86
2023-08-04T22:21:53.619Z,18.76
2023-08-04T22:24:22.839Z,18.76
2023-08-04T22:26:51.072Z,18.77
2023-08-04T22:29:19.246Z,18.79
2023-08-04T22:31:47.245Z,18.80
2023-08-04T22:34:15.169Z,18.80
2023-08-04T22:36:47.176Z,18.79
2023-08-04T22:39:15.478Z,18.78
2023-08-04T22:41:43.952Z,18.78
2023-08-04T22:44:12.624Z,18.78
2023-08-04T22:46:40.505Z,18.78
2023-08-04T22:49:08.677Z,18.77
2023-08-04T22:51:36.708Z,18.76
2023-08-04T22:54:05.767Z,18.74
2023-08-04T22:56:35.125Z,18.71
2023-08-04T22:59:03.022Z,18.71
2023-08-04T23:01:30.941Z,18.70
2023-08-04T23:03:58.947Z,18.69
2023-08-04T23:06:26.853Z,18.68
2023-08-04T23:08:54.811Z,18.68
2023-08-04T23:11:23.557Z,18.65
2023-08-04T23:13:51.524Z,18.57
2023-08-04T23:16:26.264Z,18.55
2023-08-04T23:18:54.530Z,18.46
2023-08-04T23:21:22.880Z,18.40
2023-08-04T23:23:50.924Z,18.39
2023-08-04T23:26:18.874Z,18.43
2023-08-04T23:28:47.343Z,18.48
2023-08-04T23:31:15.338Z,18.50
2023-08-04T23:33:43.491Z,18.44
2023-08-04T23:36:11.464Z,18.45
2023-08-04T23:38:43.215Z,18.49
2023-08-04T23:41:11.678Z,18.49
2023-08-04T23:43:39.753Z,18.42
2023-08-04T23:46:07.859Z,18.42
2023-08-04T23:48:35.931Z,18.46
2023-08-04T23:51:04.062Z,18.47
2023-08-04T23:53:32.087Z,18.45
2023-08-04T23:55:59.977Z,18.46
2023-08-04T23:58:28.327Z,18.45
